Time;durP1;ratioP1;P1;durP2;ratioP2;P2;SDS_P1;SDS_P2;PMS_P1;PMS_P2;Temp;Humidity;BMP_temperature;BMP_pressure;BME280_temperature;BME280_humidity;BME280_pressure;Samples;Min_cycle;Max_cycle;Signal;HPM_P1;HPM_P2
2023/05/13 00:00:16;;;;;;;5.15;2.15;;;;;;;20.87;63.80;101093.44;5094386;28;20059;-69
2023/05/13 00:02:44;;;;;;;3.78;2.25;;;;;;;20.87;63.63;101089.88;5094701;28;20044;-69
2023/05/13 00:05:11;;;;;;;5.07;2.70;;;;;;;20.87;63.58;101096.13;5090533;28;20391;-68
2023/05/13 00:07:40;;;;;;;3.33;1.90;;;;;;;20.87;63.88;101103.34;5074059;28;20059;-69
2023/05/13 00:10:08;;;;;;;3.42;2.00;;;;;;;20.87;63.80;101095.28;5073839;28;20055;-70
2023/05/13 00:12:36;;;;;;;5.25;2.08;;;;;;;20.87;63.64;101095.28;5074278;28;20045;-69
2023/05/13 00:15:03;;;;;;;4.05;1.88;;;;;;;20.87;63.57;101089.88;5073789;28;20056;-70
2023/05/13 00:17:30;;;;;;;3.78;2.30;;;;;;;20.86;63.59;101091.69;5074107;28;20048;-70
2023/05/13 00:19:58;;;;;;;4.45;2.30;;;;;;;20.86;63.70;101094.38;5073595;28;20060;-69
2023/05/13 00:22:25;;;;;;;3.53;1.98;;;;;;;20.87;63.67;101106.03;5088346;28;20052;-69
2023/05/13 00:24:52;;;;;;;4.30;2.13;;;;;;;20.87;63.88;101108.72;5094213;28;20055;-70
2023/05/13 00:27:20;;;;;;;3.45;2.13;;;;;;;20.85;63.72;101108.84;5093960;28;20404;-69
2023/05/13 00:29:47;;;;;;;3.22;1.80;;;;;;;20.86;63.51;101107.00;5092565;28;20058;-69
2023/05/13 00:32:14;;;;;;;2.95;1.58;;;;;;;20.86;63.48;101109.69;5093198;28;20481;-69
2023/05/13 00:34:41;;;;;;;2.85;1.63;;;;;;;20.86;63.79;101107.00;5092685;28;20392;-69
2023/05/13 00:37:10;;;;;;;3.85;1.90;;;;;;;20.85;63.80;101092.69;5092679;28;20055;-69
2023/05/13 00:39:37;;;;;;;4.75;2.00;;;;;;;20.85;63.72;101106.16;5093077;28;20064;-69
2023/05/13 00:42:04;;;;;;;3.28;1.80;;;;;;;20.84;63.77;101101.75;5093759;28;20044;-68
2023/05/13 00:44:33;;;;;;;3.92;2.15;;;;;;;20.84;63.86;101099.06;5093394;28;20495;-68
2023/05/13 00:47:01;;;;;;;3.55;2.03;;;;;;;20.84;63.84;101101.75;5093868;28;20048;-68
2023/05/13 00:49:28;;;;;;;2.40;1.48;;;;;;;20.84;63.88;101109.00;5093607;28;20387;-69
2023/05/13 00:51:56;;;;;;;4.05;1.98;;;;;;;20.84;63.68;101106.28;5092474;28;20052;-69
2023/05/13 00:54:24;;;;;;;3.83;1.75;;;;;;;20.84;63.65;101106.28;5091983;28;20388;-69
2023/05/13 00:56:55;;;;;;;4.93;1.55;;;;;;;20.83;63.80;101100.06;5092765;28;20067;-70
2023/05/13 00:59:24;;;;;;;2.65;1.50;;;;;;;20.83;63.70;101102.75;5093170;28;20043;-70
2023/05/13 01:02:02;;;;;;;3.97;1.75;;;;;;;20.84;63.81;101095.53;5092154;28;20095;-69
2023/05/13 01:04:43;;;;;;;3.78;1.50;;;;;;;20.83;63.74;101086.63;5093766;28;20059;-69
2023/05/13 01:07:19;;;;;;;3.90;1.77;;;;;;;20.83;63.54;101089.31;5078796;28;20044;-70
2023/05/13 01:10:02;;;;;;;3.50;1.73;;;;;;;20.83;63.51;101096.53;5073078;28;20044;-70
2023/05/13 01:12:35;;;;;;;3.33;1.95;;;;;;;20.83;63.36;101097.38;5072246;28;20053;-70
2023/05/13 01:15:09;;;;;;;2.65;1.70;;;;;;;20.84;63.41;101103.59;5071900;28;20047;-70
2023/05/13 01:17:46;;;;;;;2.97;1.70;;;;;;;20.83;63.41;101105.44;5073398;28;20122;-70
2023/05/13 01:20:17;;;;;;;3.25;1.80;;;;;;;20.83;63.39;101100.06;5072148;28;20048;-70
2023/05/13 01:22:44;;;;;;;3.65;1.70;;;;;;;20.82;63.42;101098.34;5073037;28;20045;-70
2023/05/13 01:25:11;;;;;;;2.92;1.83;;;;;;;20.83;63.33;101093.84;5073269;28;20040;-70
2023/05/13 01:27:39;;;;;;;3.20;1.80;;;;;;;20.83;63.28;101100.06;5072032;28;20093;-69
2023/05/13 01:30:09;;;;;;;4.18;1.67;;;;;;;20.83;63.38;101096.53;5072173;28;20049;-68
2023/05/13 01:32:39;;;;;;;3.50;1.90;;;;;;;20.83;63.21;101097.38;5071933;28;20484;-69
2023/05/13 01:35:08;;;;;;;3.10;1.92;;;;;;;20.83;63.23;101099.22;5055571;28;20056;-69
2023/05/13 01:37:40;;;;;;;2.35;1.40;;;;;;;20.82;63.35;101092.97;5083303;28;20056;-69
2023/05/13 01:40:08;;;;;;;3.88;1.77;;;;;;;20.82;63.26;101101.03;5092333;28;20052;-69
2023/05/13 01:42:46;;;;;;;4.20;1.80;;;;;;;20.82;63.00;101092.97;5092347;28;20480;-69
2023/05/13 01:45:14;;;;;;;3.95;1.77;;;;;;;20.83;62.80;101096.53;5096017;28;20044;-69
2023/05/13 01:47:42;;;;;;;2.38;1.35;;;;;;;20.83;62.72;101097.38;5096955;28;20048;-69
2023/05/13 01:50:09;;;;;;;3.13;1.83;;;;;;;20.83;62.97;101096.53;5096298;28;20052;-69
2023/05/13 01:52:37;;;;;;;4.13;1.63;;;;;;;20.83;62.92;101100.06;5096142;28;20062;-69
2023/05/13 01:55:04;;;;;;;2.88;1.50;;;;;;;20.83;62.85;101097.38;5096022;28;20411;-68
2023/05/13 01:57:32;;;;;;;4.88;1.80;;;;;;;20.82;62.81;101092.09;5095877;28;20052;-69
2023/05/13 01:59:59;;;;;;;3.08;1.52;;;;;;;20.83;62.84;101093.84;5095598;28;20051;-68
2023/05/13 02:02:27;;;;;;;3.70;1.70;;;;;;;20.82;62.86;101086.72;5095774;28;20052;-69
2023/05/13 02:04:55;;;;;;;3.63;1.42;;;;;;;20.83;62.85;101101.91;5095565;28;20055;-69
2023/05/13 02:07:22;;;;;;;4.45;1.70;;;;;;;20.81;63.00;101101.19;5082799;28;20040;-69
2023/05/13 02:09:54;;;;;;;2.85;1.63;;;;;;;20.82;62.87;101101.03;5074629;28;20392;-69
2023/05/13 02:12:21;;;;;;;4.68;2.10;;;;;;;20.82;62.69;101105.56;5075641;28;20415;-69
2023/05/13 02:14:49;;;;;;;3.10;1.50;;;;;;;20.82;62.71;101101.03;5076459;28;20472;-69
2023/05/13 02:17:16;;;;;;;5.25;1.65;;;;;;;20.82;62.68;101102.88;5075487;28;20044;-69
2023/05/13 02:19:43;;;;;;;3.97;1.70;;;;;;;20.81;62.77;101103.88;5075639;28;20056;-69
2023/05/13 02:22:11;;;;;;;2.67;1.70;;;;;;;20.81;62.55;101091.25;5082575;28;20048;-69
2023/05/13 02:24:41;;;;;;;3.03;1.60;;;;;;;20.83;62.43;101093.84;5096170;28;20047;-69
2023/05/13 02:27:11;;;;;;;3.30;1.75;;;;;;;20.82;62.69;101094.81;5095569;28;20075;-69
2023/05/13 02:29:38;;;;;;;4.50;1.80;;;;;;;20.82;62.61;101092.97;5095295;28;20048;-69
2023/05/13 02:32:06;;;;;;;4.32;1.73;;;;;;;20.81;62.25;101093.94;5095330;28;20048;-69
2023/05/13 02:34:33;;;;;;;4.90;1.35;;;;;;;20.83;62.50;101096.53;5096417;28;20059;-68
2023/05/13 02:37:02;;;;;;;4.15;1.70;;;;;;;20.81;62.58;101093.94;5095863;28;20044;-69
2023/05/13 02:39:30;;;;;;;3.80;2.13;;;;;;;20.82;62.34;101097.50;5095200;28;20052;-69
2023/05/13 02:41:58;;;;;;;3.40;1.88;;;;;;;20.81;62.37;101099.34;5095366;28;20044;-68
2023/05/13 02:44:30;;;;;;;3.67;1.88;;;;;;;20.82;62.26;101095.66;5095078;28;20515;-68
2023/05/13 02:46:59;;;;;;;2.08;1.30;;;;;;;20.82;62.27;101105.56;5094793;28;20061;-68
2023/05/13 02:49:27;;;;;;;3.42;1.42;;;;;;;20.82;62.19;101109.09;5094984;28;20048;-68
2023/05/13 02:51:54;;;;;;;3.03;1.42;;;;;;;20.82;62.21;101114.47;5094738;28;20052;-69
2023/05/13 02:54:29;;;;;;;3.65;1.35;;;;;;;20.83;62.31;101112.69;5094181;28;20048;-69
2023/05/13 02:56:56;;;;;;;6.45;1.90;;;;;;;20.83;62.11;101115.38;5094978;28;20055;-69
2023/05/13 02:59:23;;;;;;;3.63;1.52;;;;;;;20.84;62.31;101117.06;5094596;28;20388;-69
2023/05/13 03:01:52;;;;;;;2.33;1.20;;;;;;;20.81;62.37;101112.78;5095728;28;20059;-69
2023/05/13 03:04:19;;;;;;;3.20;1.20;;;;;;;20.82;62.28;101119.03;5095904;28;20051;-69
2023/05/13 03:06:47;;;;;;;2.30;1.20;;;;;;;20.82;62.38;101113.63;5092339;28;20048;-69
2023/05/13 03:09:14;;;;;;;5.55;1.88;;;;;;;20.81;62.35;101112.78;5072937;28;20052;-70
2023/05/13 03:11:43;;;;;;;2.85;1.55;;;;;;;20.81;62.17;101110.09;5074389;28;20068;-69
2023/05/13 03:14:10;;;;;;;2.45;1.38;;;;;;;20.81;62.17;101110.09;5075215;28;20048;-69
2023/05/13 03:16:38;;;;;;;2.20;1.00;;;;;;;20.82;62.31;101110.94;5075133;28;20063;-69
2023/05/13 03:19:05;;;;;;;3.05;1.40;;;;;;;20.82;62.05;101114.47;5075309;28;20048;-69
2023/05/13 03:21:33;;;;;;;4.00;1.67;;;;;;;20.82;61.82;101111.78;5069076;28;20057;-69
2023/05/13 03:24:05;;;;;;;3.20;1.60;;;;;;;20.83;61.73;101123.44;5073873;28;20060;-69
2023/05/13 03:26:32;;;;;;;5.82;2.40;;;;;;;20.82;62.00;101119.88;5074957;28;20052;-69
2023/05/13 03:29:00;;;;;;;4.18;1.73;;;;;;;20.82;62.09;101127.94;5073884;28;20053;-69
2023/05/13 03:31:28;;;;;;;4.22;1.52;;;;;;;20.82;62.00;101129.78;5073294;28;20044;-68
2023/05/13 03:33:58;;;;;;;5.38;1.95;;;;;;;20.82;62.03;101144.09;5074278;28;20048;-69
2023/05/13 03:36:26;;;;;;;2.85;1.40;;;;;;;20.83;62.04;101139.59;5073669;28;20495;-69
2023/05/13 03:38:53;;;;;;;4.40;1.90;;;;;;;20.83;61.93;101139.59;5091094;28;20059;-69
2023/05/13 03:41:21;;;;;;;4.05;1.40;;;;;;;20.83;62.05;101147.66;5093947;28;20052;-69
2023/05/13 03:43:49;;;;;;;3.03;1.58;;;;;;;20.84;61.95;101146.66;5093969;28;20412;-69
2023/05/13 03:46:16;;;;;;;5.70;2.20;;;;;;;20.84;61.99;101146.66;5094750;28;20044;-70
2023/05/13 03:48:44;;;;;;;3.78;1.77;;;;;;;20.82;61.96;101145.94;5095121;28;20499;-70
2023/05/13 03:51:11;;;;;;;3.33;1.63;;;;;;;20.83;61.96;101147.66;5093717;28;20052;-69
2023/05/13 03:53:39;;;;;;;3.13;2.15;;;;;;;20.82;61.69;101152.16;5094233;28;20051;-70
2023/05/13 03:56:07;;;;;;;2.70;1.63;;;;;;;20.80;61.68;101151.44;5093357;28;20051;-70
2023/05/13 03:58:34;;;;;;;3.67;1.75;;;;;;;20.82;61.54;101156.69;5094977;28;20059;-69
2023/05/13 04:01:03;;;;;;;6.22;1.88;;;;;;;20.82;61.49;101156.69;5093487;28;20044;-69
2023/05/13 04:03:30;;;;;;;3.28;1.80;;;;;;;20.81;61.59;101157.69;5093340;28;20055;-70
2023/05/13 04:05:57;;;;;;;3.85;2.20;;;;;;;20.82;61.65;101156.69;5093867;28;20044;-69
2023/05/13 04:08:25;;;;;;;5.80;2.22;;;;;;;20.81;61.52;101155.84;5090743;28;20043;-69
2023/05/13 04:10:54;;;;;;;4.78;2.10;;;;;;;20.81;61.52;101158.53;5090485;28;20044;-70
2023/05/13 04:13:21;;;;;;;8.93;2.72;;;;;;;20.81;61.37;101160.38;5093230;28;20392;-70
2023/05/13 04:15:49;;;;;;;5.22;3.03;;;;;;;20.80;61.14;101167.59;5093427;28;20407;-69
2023/05/13 04:18:16;;;;;;;5.97;3.08;;;;;;;20.80;61.27;101172.97;5092790;28;20059;-69
2023/05/13 04:20:43;;;;;;;4.95;2.72;;;;;;;20.80;61.11;101174.81;5084942;28;20048;-69
2023/05/13 04:23:11;;;;;;;5.03;2.40;;;;;;;20.81;61.27;101173.81;5083602;28;20052;-70
2023/05/13 04:25:39;;;;;;;4.97;2.92;;;;;;;20.80;61.33;101174.81;5094010;28;20036;-70
2023/05/13 04:28:07;;;;;;;4.30;2.70;;;;;;;20.79;61.09;101176.66;5093939;28;20039;-69
2023/05/13 04:30:38;;;;;;;5.43;2.65;;;;;;;20.79;61.13;101178.50;5093125;28;20423;-70
2023/05/13 04:33:06;;;;;;;8.10;3.45;;;;;;;20.80;60.96;101178.38;5092406;28;20507;-70
2023/05/13 04:35:35;;;;;;;4.93;2.58;;;;;;;20.80;61.21;101174.81;5076378;28;20048;-70
2023/05/13 04:38:04;;;;;;;4.30;2.65;;;;;;;20.79;61.30;101176.66;5076692;28;20048;-70
2023/05/13 04:40:31;;;;;;;4.57;3.10;;;;;;;20.79;61.07;101178.50;5092336;28;20052;-70
2023/05/13 04:43:04;;;;;;;6.03;3.25;;;;;;;20.78;61.16;101174.94;5092239;28;20534;-69
2023/05/13 04:45:39;;;;;;;6.43;3.40;;;;;;;20.79;60.76;101175.81;5093117;28;20059;-69
2023/05/13 04:48:09;;;;;;;5.00;3.50;;;;;;;20.79;60.90;101170.44;5092798;28;20071;-69
2023/05/13 04:50:36;;;;;;;4.57;2.60;;;;;;;20.78;60.99;101169.56;5092587;28;20055;-69
2023/05/13 04:53:04;;;;;;;3.80;2.97;;;;;;;20.79;61.02;101171.28;5092777;28;20059;-68
2023/05/13 04:55:33;;;;;;;6.10;3.42;;;;;;;20.79;60.73;101175.81;5092511;28;20518;-69
2023/05/13 04:58:01;;;;;;;5.78;3.08;;;;;;;20.79;60.91;101179.34;5092478;28;20052;-70
2023/05/13 05:00:28;;;;;;;4.90;3.65;;;;;;;20.79;60.87;101182.06;5092105;28;20044;-70
2023/05/13 05:02:56;;;;;;;6.03;3.65;;;;;;;20.80;61.00;101193.66;5092641;28;20496;-70
2023/05/13 05:05:25;;;;;;;4.88;3.40;;;;;;;20.79;60.88;101186.59;5092234;28;20056;-69
2023/05/13 05:07:53;;;;;;;6.25;4.18;;;;;;;20.79;60.77;101184.75;5092255;28;20052;-69
2023/05/13 05:10:21;;;;;;;6.32;4.47;;;;;;;20.79;60.55;101186.59;5082821;28;20048;-69
2023/05/13 05:12:55;;;;;;;6.70;4.13;;;;;;;20.79;60.57;101190.13;5072166;28;20053;-69
2023/05/13 05:15:23;;;;;;;6.10;4.20;;;;;;;20.79;60.46;101182.06;5072453;28;20052;-69
2023/05/13 05:17:57;;;;;;;6.68;4.32;;;;;;;20.79;60.68;101183.88;5072029;28;20401;-69
2023/05/13 05:20:26;;;;;;;8.02;4.50;;;;;;;20.78;60.60;101182.16;5072165;28;20052;-69
2023/05/13 05:22:56;;;;;;;6.20;4.15;;;;;;;20.78;60.53;101179.47;5071536;28;20393;-69
2023/05/13 05:25:25;;;;;;;7.15;4.10;;;;;;;20.78;60.75;101179.47;5071322;28;20045;-69
2023/05/13 05:27:53;;;;;;;7.28;5.65;;;;;;;20.78;60.45;101187.53;5073097;28;20488;-70
2023/05/13 05:30:21;;;;;;;6.07;4.30;;;;;;;20.79;60.75;101191.97;5072007;28;20507;-70
2023/05/13 05:33:02;;;;;;;6.82;4.40;;;;;;;20.79;60.47;101191.97;5071602;28;20408;-70
2023/05/13 05:35:30;;;;;;;9.25;4.78;;;;;;;20.78;60.27;101190.22;5071733;28;20055;-69
2023/05/13 05:37:57;;;;;;;7.05;4.57;;;;;;;20.78;60.37;101193.78;5074704;28;20060;-70
2023/05/13 05:40:24;;;;;;;6.72;4.90;;;;;;;20.78;60.32;101193.78;5093100;28;20044;-70
2023/05/13 05:42:52;;;;;;;7.28;4.22;;;;;;;20.79;60.34;101200.03;5092142;28;20052;-70
2023/05/13 05:45:19;;;;;;;5.38;4.03;;;;;;;20.79;60.35;101197.34;5091731;28;20052;-69
2023/05/13 05:47:47;;;;;;;7.80;4.18;;;;;;;20.79;60.46;101208.09;5092063;28;20056;-70
2023/05/13 05:50:16;;;;;;;7.80;5.25;;;;;;;20.80;60.35;101207.13;5075799;28;20052;-69
2023/05/13 05:52:44;;;;;;;6.55;5.32;;;;;;;20.79;60.14;101202.72;5091987;28;20059;-69
2023/05/13 05:55:12;;;;;;;6.90;4.72;;;;;;;20.79;60.35;101216.19;5091606;28;20060;-70
2023/05/13 05:57:40;;;;;;;5.35;4.15;;;;;;;20.79;60.32;101213.50;5091290;28;20044;-70
2023/05/13 06:00:07;;;;;;;9.20;5.00;;;;;;;20.79;60.46;101211.66;5092711;28;20411;-70
2023/05/13 06:02:41;;;;;;;7.20;5.60;;;;;;;20.78;60.22;101212.59;5099853;28;20052;-70
2023/05/13 06:05:10;;;;;;;8.63;6.00;;;;;;;20.78;60.14;101215.28;5092016;28;20059;-70
2023/05/13 06:07:39;;;;;;;7.53;5.45;;;;;;;20.79;60.23;101225.09;5091649;28;20403;-70
2023/05/13 06:10:07;;;;;;;7.07;4.90;;;;;;;20.79;60.01;101222.41;5090341;28;20047;-70
2023/05/13 06:12:35;;;;;;;6.68;4.45;;;;;;;20.78;60.26;101226.06;5070099;28;20041;-70
2023/05/13 06:15:05;;;;;;;10.23;5.25;;;;;;;20.79;60.30;101218.88;5072519;28;20055;-70
2023/05/13 06:17:32;;;;;;;10.90;5.95;;;;;;;20.78;59.78;101218.00;5072807;28;20446;-70
2023/05/13 06:20:00;;;;;;;7.72;5.63;;;;;;;20.78;59.90;101222.53;5071162;28;20055;-70
2023/05/13 06:22:27;;;;;;;7.38;5.25;;;;;;;20.78;60.03;101227.91;5072683;28;20049;-70
2023/05/13 06:24:55;;;;;;;8.02;4.78;;;;;;;20.78;60.27;101231.44;5088716;28;20051;-70
2023/05/13 06:27:22;;;;;;;7.30;5.18;;;;;;;20.79;60.43;101230.47;5092757;28;20408;-70
2023/05/13 06:29:50;;;;;;;6.25;4.25;;;;;;;20.80;60.40;101236.72;5092889;28;20051;-70
2023/05/13 06:32:19;;;;;;;7.63;5.43;;;;;;;20.80;60.29;101236.72;5095440;28;20052;-70
2023/05/13 06:34:47;;;;;;;5.68;4.25;;;;;;;20.81;60.35;101233.03;5096337;28;20047;-70
2023/05/13 06:37:14;;;;;;;8.18;5.45;;;;;;;20.80;60.13;101242.09;5095219;28;20052;-70
2023/05/13 06:39:42;;;;;;;9.55;5.63;;;;;;;20.80;60.03;101242.09;5095279;28;20052;-70
2023/05/13 06:42:10;;;;;;;6.85;5.18;;;;;;;20.81;60.27;101241.09;5096285;28;20055;-70
2023/05/13 06:44:44;;;;;;;6.85;5.05;;;;;;;20.80;60.40;101242.94;5094385;28;20048;-69
2023/05/13 06:47:14;;;;;;;10.13;4.75;;;;;;;20.81;60.63;101241.94;5095373;28;20054;-69
2023/05/13 06:49:42;;;;;;;7.82;5.53;;;;;;;20.82;60.40;101246.34;5094855;28;20069;-69
2023/05/13 06:52:10;;;;;;;6.97;4.60;;;;;;;20.81;60.42;101246.47;5094617;28;20044;-70
2023/05/13 06:54:38;;;;;;;13.65;9.20;;;;;;;20.79;58.76;101245.78;5095197;28;20040;-70
2023/05/13 06:57:06;;;;;;;20.20;11.98;;;;;;;20.57;57.79;101246.72;5095977;28;20059;-70
2023/05/13 06:59:35;;;;;;;18.77;12.45;;;;;;;20.48;57.48;101238.47;5095689;28;20052;-70
2023/05/13 07:02:03;;;;;;;19.50;13.70;;;;;;;20.38;57.42;101239.34;5094479;28;20059;-70
2023/05/13 07:04:30;;;;;;;22.33;14.25;;;;;;;20.24;57.53;101237.78;5096041;28;20071;-70
2023/05/13 07:06:58;;;;;;;19.33;12.57;;;;;;;20.24;57.58;101246.72;5095337;28;20048;-70
2023/05/13 07:09:26;;;;;;;18.08;12.15;;;;;;;20.23;57.32;101239.63;5095424;28;20047;-70
2023/05/13 07:11:53;;;;;;;16.20;11.68;;;;;;;20.17;57.44;101229.38;5083289;28;20574;-70
2023/05/13 07:14:20;;;;;;;17.08;11.35;;;;;;;20.18;57.76;101235.63;5074631;28;20052;-70
2023/05/13 07:16:48;;;;;;;14.82;10.27;;;;;;;20.21;57.32;101241.59;5074766;28;20519;-70
2023/05/13 07:19:15;;;;;;;15.75;10.23;;;;;;;20.22;57.62;101232.56;5075403;28;20476;-70
2023/05/13 07:21:43;;;;;;;15.15;9.10;;;;;;;20.30;57.58;101229.22;5075014;28;20044;-70
2023/05/13 07:24:10;;;;;;;13.18;10.38;;;;;;;20.30;57.03;101231.06;5075329;28;20055;-70
2023/05/13 07:26:38;;;;;;;14.38;9.30;;;;;;;20.32;57.41;101232.63;5074958;28;20044;-67
2023/05/13 07:29:06;;;;;;;13.50;8.55;;;;;;;20.33;57.17;101225.41;5074867;28;20093;-67
2023/05/13 07:31:33;;;;;;;11.77;8.40;;;;;;;20.30;56.85;101223.84;5074866;28;20495;-68
2023/05/13 07:34:01;;;;;;;12.52;8.75;;;;;;;20.26;56.94;101222.41;5075177;28;20384;-68
2023/05/13 07:36:28;;;;;;;13.23;9.23;;;;;;;20.25;56.93;101223.38;5074798;28;20045;-70
2023/05/13 07:38:55;;;;;;;13.05;8.20;;;;;;;20.25;57.07;101229.63;5079654;28;20047;-71
2023/05/13 07:41:22;;;;;;;12.77;8.48;;;;;;;20.31;57.16;101232.78;5095503;28;20055;-66
2023/05/13 07:43:50;;;;;;;12.13;8.75;;;;;;;20.36;56.97;101222.47;5094987;28;20483;-65
2023/05/13 07:46:17;;;;;;;12.95;8.25;;;;;;;20.43;57.02;101218.28;5094702;28;20043;-65
2023/05/13 07:48:44;;;;;;;10.93;7.55;;;;;;;20.48;56.87;101221.44;5094507;28;20047;-66
2023/05/13 07:51:11;;;;;;;10.98;7.45;;;;;;;20.52;56.85;101222.91;5095041;28;20388;-72
2023/05/13 07:53:41;;;;;;;11.32;7.20;;;;;;;20.58;56.64;101221.53;5094726;28;20044;-72
2023/05/13 07:56:09;;;;;;;11.30;6.90;;;;;;;20.62;57.14;101214.91;5094468;28;20048;-70
2023/05/13 07:58:36;;;;;;;14.77;7.38;;;;;;;20.67;56.85;101210.84;5088332;28;20044;-72
2023/05/13 08:01:04;;;;;;;11.80;7.22;;;;;;;20.71;56.67;101215.00;5073867;28;20057;-70
2023/05/13 08:03:31;;;;;;;10.05;7.57;;;;;;;20.72;56.25;101214.00;5082811;28;20048;-71
2023/05/13 08:05:59;;;;;;;11.38;7.13;;;;;;;20.68;56.00;101214.41;5094583;28;20059;-71
2023/05/13 08:08:26;;;;;;;11.57;7.85;;;;;;;20.67;56.02;101210.00;5093115;28;20396;-71
2023/05/13 08:10:53;;;;;;;9.73;6.80;;;;;;;20.70;56.52;101209.72;5094288;28;20047;-70
2023/05/13 08:13:21;;;;;;;12.68;7.82;;;;;;;20.71;56.57;101198.84;5077919;28;20041;-69
2023/05/13 08:15:48;;;;;;;9.65;7.75;;;;;;;20.71;56.89;101206.91;5073635;28;20037;-69
2023/05/13 08:18:15;;;;;;;12.52;8.23;;;;;;;20.74;57.09;101203.97;5073810;28;20047;-72
2023/05/13 08:20:43;;;;;;;10.70;8.18;;;;;;;20.73;57.08;101213.00;5081977;28;20036;-64
2023/05/13 08:23:10;;;;;;;12.93;7.93;;;;;;;20.76;57.20;101208.38;5093903;28;20048;-68
2023/05/13 08:25:37;;;;;;;10.48;8.70;;;;;;;20.74;57.06;101212.03;5093599;28;20052;-67
2023/05/13 08:28:05;;;;;;;12.23;8.90;;;;;;;20.74;56.96;101209.34;5093965;28;20048;-65
2023/05/13 08:30:32;;;;;;;12.45;9.25;;;;;;;20.73;57.07;101221.06;5092878;28;20413;-68
2023/05/13 08:32:59;;;;;;;13.02;9.02;;;;;;;20.73;57.03;101212.16;5093630;28;20407;-67
2023/05/13 08:35:26;;;;;;;12.57;8.55;;;;;;;20.72;57.17;101213.16;5094243;28;20051;-68
2023/05/13 08:37:54;;;;;;;11.55;7.82;;;;;;;20.71;57.14;101219.53;5093876;28;20055;-69
2023/05/13 08:40:21;;;;;;;12.65;8.55;;;;;;;20.69;56.84;101219.63;5094033;28;20044;-66
2023/05/13 08:42:51;;;;;;;10.27;7.90;;;;;;;20.66;56.93;101222.63;5093749;28;20052;-65
2023/05/13 08:45:20;;;;;;;11.10;8.30;;;;;;;20.63;56.73;101220.19;5094081;28;20055;-65
2023/05/13 08:47:55;;;;;;;9.00;6.85;;;;;;;20.62;56.90;101220.28;5093755;28;20055;-65
2023/05/13 08:50:24;;;;;;;10.02;7.20;;;;;;;20.60;56.75;101219.59;5092777;28;20389;-67
2023/05/13 08:52:55;;;;;;;8.32;6.47;;;;;;;20.60;57.17;101219.59;5093577;28;20044;-69
2023/05/13 08:55:26;;;;;;;10.60;6.55;;;;;;;20.60;57.01;101223.13;5093193;28;20050;-69
2023/05/13 08:57:53;;;;;;;7.85;5.75;;;;;;;20.60;57.19;101220.44;5093309;28;20468;-69
2023/05/13 09:00:21;;;;;;;9.35;6.20;;;;;;;20.61;56.98;101221.28;5093476;28;20043;-69
2023/05/13 09:02:49;;;;;;;9.77;5.45;;;;;;;20.62;57.07;101225.66;5093828;28;20044;-69
2023/05/13 09:05:17;;;;;;;9.77;6.25;;;;;;;20.60;56.98;101225.81;5093391;28;20055;-69
2023/05/13 09:07:44;;;;;;;6.95;5.82;;;;;;;20.58;57.01;101222.41;5093651;28;20048;-69
2023/05/13 09:10:12;;;;;;;8.23;5.28;;;;;;;20.57;56.97;101214.44;5093319;28;20480;-65
2023/05/13 09:12:46;;;;;;;9.20;6.40;;;;;;;20.47;56.98;101215.22;5091912;28;20048;-64
2023/05/13 09:15:21;;;;;;;9.00;6.85;;;;;;;20.38;57.30;101217.84;5072279;28;20055;-64
2023/05/13 09:17:52;;;;;;;11.85;6.97;;;;;;;20.30;57.68;101217.63;5073165;28;20045;-64
2023/05/13 09:20:21;;;;;;;9.43;6.25;;;;;;;20.22;57.88;101218.28;5073280;28;20041;-66
2023/05/13 09:22:52;;;;;;;7.05;5.97;;;;;;;20.16;57.90;101216.06;5073276;28;20393;-69
2023/05/13 09:25:24;;;;;;;9.40;6.57;;;;;;;20.10;57.77;101228.22;5071881;28;20051;-66
2023/05/13 09:27:57;;;;;;;8.68;6.50;;;;;;;20.06;58.03;101224.06;5073158;28;20049;-67
2023/05/13 09:30:26;;;;;;;8.15;5.22;;;;;;;20.04;58.38;101209.88;5073476;28;20067;-67
2023/05/13 09:33:28;;;;;;;9.40;5.93;;;;;;;20.02;58.67;101203.81;5072683;28;20059;-64
2023/05/13 09:35:55;;;;;;;5.82;4.95;;;;;;;20.02;59.49;101209.19;5072455;28;20400;-64
2023/05/13 09:38:27;;;;;;;7.93;5.47;;;;;;;20.00;58.87;101206.59;5072994;28;20491;-64
2023/05/13 09:40:56;;;;;;;8.23;4.93;;;;;;;20.01;58.95;101204.75;5086574;28;20044;-66
2023/05/13 09:43:26;;;;;;;5.07;3.80;;;;;;;20.13;58.73;101201.03;5093166;28;20055;-64
2023/05/13 09:45:55;;;;;;;4.72;3.63;;;;;;;20.27;58.74;101204.44;5093053;28;20071;-64
2023/05/13 09:48:28;;;;;;;7.88;3.67;;;;;;;20.38;58.37;101207.09;5093150;28;20369;-63
2023/05/13 09:50:58;;;;;;;7.00;3.50;;;;;;;20.47;58.38;101198.22;5092952;28;20040;-65
2023/05/13 09:53:27;;;;;;;6.25;3.47;;;;;;;20.53;58.32;101197.72;5092586;28;20361;-67
2023/05/13 09:55:58;;;;;;;5.40;3.30;;;;;;;20.63;57.81;101190.59;5092787;28;20056;-63
2023/05/13 09:58:27;;;;;;;6.90;3.25;;;;;;;20.74;57.15;101185.13;5092237;28;20051;-64
2023/05/13 10:00:56;;;;;;;5.68;3.13;;;;;;;20.80;57.31;101182.91;5092979;28;20047;-66
2023/05/13 10:03:24;;;;;;;7.13;2.95;;;;;;;20.85;57.14;101188.72;5093296;28;20051;-64
2023/05/13 10:05:52;;;;;;;5.63;3.00;;;;;;;20.88;57.16;101185.78;5094400;28;20051;-64
2023/05/13 10:08:21;;;;;;;5.78;2.85;;;;;;;20.92;57.00;101189.91;5085220;28;20055;-64
2023/05/13 10:10:52;;;;;;;4.78;2.78;;;;;;;20.93;57.15;101184.38;5096453;28;20040;-65
2023/05/13 10:13:23;;;;;;;5.03;2.63;;;;;;;20.97;56.85;101184.97;5082554;28;20049;-66
2023/05/13 10:15:52;;;;;;;6.00;3.15;;;;;;;21.01;57.43;101180.16;5074935;28;20041;-63
2023/05/13 10:18:21;;;;;;;5.47;2.40;;;;;;;21.04;56.72;101185.28;5076069;28;20392;-66
2023/05/13 10:20:51;;;;;;;4.60;2.42;;;;;;;21.05;56.99;101182.44;5075859;28;20051;-65
2023/05/13 10:23:22;;;;;;;5.03;2.50;;;;;;;21.05;56.93;101181.59;5058943;28;20056;-65
2023/05/13 10:25:53;;;;;;;41.38;6.10;;;;;;;21.11;57.08;101179.25;5089550;28;20046;-48
2023/05/13 10:28:21;;;;;;;3.15;1.70;;;;;;;21.30;56.19;101164.13;5096093;28;20052;-47
2023/05/13 10:30:50;;;;;;;5.97;2.20;;;;;;;21.40;56.10;101165.06;5096227;28;20040;-46
2023/05/13 10:33:18;;;;;;;3.47;1.95;;;;;;;21.45;56.00;101169.03;5096301;28;20126;-49
2023/05/13 10:36:07;;;;;;;2.75;1.55;;;;;;;21.49;56.00;101169.63;5094811;28;20052;-49
2023/05/13 10:38:58;;;;;;;3.17;1.73;;;;;;;21.53;55.83;101165.66;5094876;28;20048;-46
2023/05/13 10:41:46;;;;;;;4.22;1.38;;;;;;;21.54;55.57;101156.56;5094705;28;20048;-59
2023/05/13 10:44:13;;;;;;;4.57;1.92;;;;;;;21.55;55.72;101152.03;5095040;28;20052;-58
2023/05/13 10:46:41;;;;;;;4.20;1.55;;;;;;;21.54;55.69;101153.88;5095297;28;20492;-59
2023/05/13 10:49:14;;;;;;;2.80;1.38;;;;;;;21.57;55.72;101155.47;5095171;28;20044;-58
2023/05/13 10:51:47;;;;;;;5.53;1.60;;;;;;;21.57;55.60;101147.38;5094032;28;20483;-59
2023/05/13 10:54:23;;;;;;;4.38;1.40;;;;;;;21.56;55.65;101143.84;5095013;28;20047;-59
2023/05/13 10:56:57;;;;;;;4.75;1.75;;;;;;;21.57;55.55;101134.75;5095079;28;20051;-58
2023/05/13 10:59:29;;;;;;;5.15;1.75;;;;;;;21.59;55.56;101131.91;5095199;28;20051;-50
2023/05/13 11:02:00;;;;;;;2.72;1.60;;;;;;;21.59;55.56;101135.47;5095416;28;20052;-47
2023/05/13 11:04:28;;;;;;;3.25;1.70;;;;;;;21.59;55.57;101134.59;5093728;28;20055;-47
2023/05/13 11:07:14;;;;;;;2.83;1.75;;;;;;;21.58;55.55;101133.75;5095224;28;20055;-46
2023/05/13 11:09:48;;;;;;;2.95;1.77;;;;;;;21.59;55.53;101140.88;5095002;28;20047;-46
2023/05/13 11:12:15;;;;;;;2.78;1.48;;;;;;;21.59;55.54;101137.28;5093860;28;20396;-47
2023/05/13 11:14:43;;;;;;;4.32;1.80;;;;;;;21.60;55.38;101134.47;5092606;28;20066;-47
2023/05/13 11:17:11;;;;;;;2.45;1.50;;;;;;;21.61;55.24;101125.41;5078808;28;20503;-49
2023/05/13 11:19:47;;;;;;;2.70;1.55;;;;;;;21.60;55.30;101121.00;5094801;28;20425;-46
2023/05/13 11:22:18;;;;;;;2.85;1.48;;;;;;;21.60;55.10;101126.41;5094950;28;20048;-47
2023/05/13 11:25:07;;;;;;;3.17;1.67;;;;;;;21.61;55.34;101138.88;5094885;28;20416;-46
2023/05/13 11:27:39;;;;;;;2.88;1.55;;;;;;;21.61;55.40;101122.72;5094630;28;20043;-47
2023/05/13 11:30:25;;;;;;;2.65;1.50;;;;;;;21.60;55.30;101121.00;5094556;28;20052;-46
2023/05/13 11:32:57;;;;;;;2.47;1.50;;;;;;;21.60;55.35;101118.31;5094528;28;20063;-48